Time;durP1;ratioP1;P1;durP2;ratioP2;P2;SDS_P1;SDS_P2;PMS_P1;PMS_P2;Temp;Humidity;BMP_temperature;BMP_pressure;BME280_temperature;BME280_humidity;BME280_pressure;Samples;Min_cycle;Max_cycle;Signal;HPM_P1;HPM_P2
2021/04/28 00:02:03;;;;;;;3.50;2.60;;;6.00;99.90;;;;;;4988590;28;20611;-51
2021/04/28 00:04:30;;;;;;;6.23;3.27;;;6.00;99.90;;;;;;4985736;28;20248;-49
2021/04/28 00:07:02;;;;;;;5.43;2.90;;;5.90;99.90;;;;;;4997974;28;20265;-49
2021/04/28 00:09:32;;;;;;;5.20;2.80;;;5.80;99.90;;;;;;4993705;28;20294;-49
2021/04/28 00:12:02;;;;;;;5.07;2.70;;;5.80;99.90;;;;;;4999807;28;20758;-49
2021/04/28 00:14:30;;;;;;;4.03;2.67;;;5.90;99.90;;;;;;4996385;28;20246;-49
2021/04/28 00:16:58;;;;;;;5.53;2.90;;;5.90;99.90;;;;;;4988329;28;20626;-49
2021/04/28 00:19:29;;;;;;;3.53;2.63;;;5.90;99.90;;;;;;4988311;28;21870;-49
2021/04/28 00:21:56;;;;;;;4.53;2.77;;;5.90;99.90;;;;;;4988412;28;20246;-50
2021/04/28 00:24:24;;;;;;;4.10;2.60;;;5.90;99.90;;;;;;4989272;28;20320;-51
2021/04/28 00:26:52;;;;;;;3.57;2.60;;;5.80;99.90;;;;;;4972453;28;20230;-49
2021/04/28 00:29:20;;;;;;;4.70;2.80;;;5.80;99.90;;;;;;4969389;28;20242;-49
2021/04/28 00:31:47;;;;;;;5.97;3.00;;;5.90;99.90;;;;;;4983424;28;20754;-51
2021/04/28 00:34:15;;;;;;;3.17;2.60;;;5.90;99.90;;;;;;4968112;28;20618;-49
2021/04/28 00:36:43;;;;;;;5.77;2.87;;;5.90;99.90;;;;;;4985040;28;20650;-49
2021/04/28 00:39:10;;;;;;;3.00;2.30;;;5.80;99.90;;;;;;4992700;28;20241;-49
2021/04/28 00:41:38;;;;;;;3.53;2.50;;;5.80;99.90;;;;;;4971440;28;20246;-49
2021/04/28 00:44:07;;;;;;;4.00;2.70;;;5.80;99.90;;;;;;4983930;28;20248;-49
2021/04/28 00:46:34;;;;;;;3.30;2.50;;;5.90;99.90;;;;;;4991257;28;20771;-50
2021/04/28 00:49:01;;;;;;;5.17;2.90;;;5.80;99.90;;;;;;4973238;28;20689;-49
2021/04/28 00:51:29;;;;;;;4.20;2.50;;;5.80;99.90;;;;;;4984407;28;20242;-50
2021/04/28 00:53:56;;;;;;;5.73;2.37;;;5.90;99.90;;;;;;4992384;28;20226;-50
2021/04/28 00:56:24;;;;;;;4.63;2.23;;;5.90;99.90;;;;;;5006977;28;20433;-50
2021/04/28 00:58:52;;;;;;;5.00;2.53;;;5.90;99.90;;;;;;4991627;28;20280;-49
2021/04/28 01:01:20;;;;;;;4.83;2.50;;;5.90;99.90;;;;;;4992021;28;20241;-50
2021/04/28 01:03:49;;;;;;;3.73;2.30;;;5.90;99.90;;;;;;4989307;28;20230;-50
2021/04/28 01:06:17;;;;;;;5.30;2.77;;;5.80;99.90;;;;;;4984288;28;20239;-50
2021/04/28 01:08:45;;;;;;;4.73;2.37;;;5.80;99.90;;;;;;4997437;28;20237;-50
2021/04/28 01:11:12;;;;;;;4.20;2.60;;;5.80;99.90;;;;;;5008496;28;20233;-50
2021/04/28 01:13:55;;;;;;;4.93;2.50;;;5.80;99.90;;;;;;5010435;28;20247;-50
2021/04/28 01:16:23;;;;;;;4.10;2.30;;;5.80;99.90;;;;;;4995648;28;20261;-50
2021/04/28 01:18:54;;;;;;;3.37;2.17;;;5.80;99.90;;;;;;4991603;28;20230;-49
2021/04/28 01:21:21;;;;;;;5.13;2.50;;;5.70;99.90;;;;;;5006802;28;20244;-50
2021/04/28 01:23:50;;;;;;;4.60;2.33;;;5.70;99.90;;;;;;4987010;28;20590;-50
2021/04/28 01:26:20;;;;;;;3.53;2.47;;;5.70;99.90;;;;;;4972887;28;20234;-50
2021/04/28 01:28:49;;;;;;;3.07;2.20;;;5.70;99.90;;;;;;4971233;28;20325;-50
2021/04/28 01:31:19;;;;;;;4.40;2.57;;;5.70;99.90;;;;;;4973498;28;20289;-49
2021/04/28 01:33:52;;;;;;;3.80;2.30;;;5.70;99.90;;;;;;4976115;28;20313;-50
2021/04/28 01:36:25;;;;;;;2.70;1.93;;;5.70;99.90;;;;;;4987648;28;20246;-50
2021/04/28 01:38:58;;;;;;;3.90;2.20;;;5.60;99.90;;;;;;4972516;28;20239;-49
2021/04/28 01:41:27;;;;;;;4.13;2.37;;;5.60;99.90;;;;;;4971720;28;20254;-50
2021/04/28 01:43:58;;;;;;;3.80;2.33;;;5.60;99.90;;;;;;4988242;28;20721;-49
2021/04/28 01:46:27;;;;;;;3.60;2.20;;;5.60;99.90;;;;;;4989766;28;20245;-49
2021/04/28 01:48:56;;;;;;;2.80;2.10;;;5.70;99.90;;;;;;4989180;28;20562;-50
2021/04/28 01:51:24;;;;;;;7.13;3.43;;;5.60;99.90;;;;;;4989504;28;20230;-49
2021/04/28 01:53:53;;;;;;;4.70;2.60;;;5.60;99.90;;;;;;4990290;28;20241;-50
2021/04/28 01:56:23;;;;;;;4.23;2.27;;;5.60;99.90;;;;;;4991398;28;20249;-49
2021/04/28 01:59:02;;;;;;;3.33;2.17;;;5.60;99.90;;;;;;4975292;28;20234;-50
2021/04/28 02:01:50;;;;;;;4.07;2.30;;;5.60;99.90;;;;;;4997826;28;20368;-50
2021/04/28 02:04:18;;;;;;;3.30;2.50;;;5.60;99.90;;;;;;4991431;28;20697;-50
2021/04/28 02:06:46;;;;;;;2.83;2.00;;;5.60;99.90;;;;;;4990847;28;20771;-49
2021/04/28 02:09:15;;;;;;;4.83;2.43;;;5.60;99.90;;;;;;5005171;28;20244;-50
2021/04/28 02:11:43;;;;;;;4.47;2.23;;;5.60;99.90;;;;;;5008436;28;20236;-49
2021/04/28 02:14:14;;;;;;;4.03;2.30;;;5.50;99.90;;;;;;5010749;28;20241;-50
2021/04/28 02:17:03;;;;;;;3.20;2.27;;;5.50;99.90;;;;;;5006220;28;20244;-50
2021/04/28 02:19:38;;;;;;;4.07;2.40;;;5.50;99.90;;;;;;4989144;28;20296;-50
2021/04/28 02:22:09;;;;;;;3.20;2.10;;;5.50;99.90;;;;;;4988963;28;20237;-49
2021/04/28 02:24:47;;;;;;;3.57;2.30;;;5.50;99.90;;;;;;4989604;28;20242;-50
2021/04/28 02:27:21;;;;;;;3.73;2.33;;;5.50;99.90;;;;;;4989406;28;20241;-50
2021/04/28 02:29:51;;;;;;;5.87;2.47;;;5.60;99.90;;;;;;4978301;28;20243;-50
2021/04/28 02:32:18;;;;;;;4.10;2.60;;;5.50;99.90;;;;;;4971264;28;20776;-50
2021/04/28 02:35:14;;;;;;;4.20;2.63;;;5.40;99.90;;;;;;4949393;28;20247;-50
2021/04/28 02:37:56;;;;;;;3.80;2.57;;;5.40;99.90;;;;;;4966527;28;20234;-50
2021/04/28 02:40:51;;;;;;;4.77;2.50;;;5.40;99.90;;;;;;4974671;28;20633;-49
2021/04/28 02:43:19;;;;;;;3.03;2.10;;;5.40;99.90;;;;;;4979242;28;20307;-49
2021/04/28 02:45:58;;;;;;;3.03;2.30;;;5.30;99.90;;;;;;4988716;28;20314;-49
2021/04/28 02:48:27;;;;;;;4.37;2.43;;;5.30;99.90;;;;;;5005173;28;20582;-50
2021/04/28 02:51:14;;;;;;;4.97;2.50;;;5.30;99.90;;;;;;4986950;28;20300;-49
2021/04/28 02:53:44;;;;;;;3.67;2.47;;;5.30;99.90;;;;;;5000461;28;20322;-49
2021/04/28 02:56:14;;;;;;;3.93;2.43;;;5.30;99.90;;;;;;4974551;28;20299;-49
2021/04/28 02:58:42;;;;;;;4.13;2.23;;;5.30;99.90;;;;;;5011602;28;20253;-49
2021/04/28 03:01:09;;;;;;;3.37;2.50;;;5.40;99.90;;;;;;4992002;28;20601;-49
2021/04/28 03:03:40;;;;;;;3.67;2.50;;;5.40;99.90;;;;;;5004924;28;20241;-49
2021/04/28 03:06:17;;;;;;;2.93;2.23;;;5.30;99.90;;;;;;4988300;28;20292;-49
2021/04/28 03:08:58;;;;;;;4.93;2.90;;;5.20;99.90;;;;;;4988842;28;20238;-50
2021/04/28 03:11:28;;;;;;;4.23;2.67;;;5.30;99.90;;;;;;4989145;28;20248;-49
2021/04/28 03:14:07;;;;;;;3.67;2.40;;;5.30;99.90;;;;;;4988613;28;20230;-49
2021/04/28 03:16:36;;;;;;;2.57;2.30;;;5.20;99.90;;;;;;4987112;28;20575;-49
2021/04/28 03:19:06;;;;;;;4.63;2.47;;;5.20;99.90;;;;;;5004668;28;20698;-49
2021/04/28 03:21:41;;;;;;;4.30;2.87;;;5.20;99.90;;;;;;4987962;28;20801;-49
2021/04/28 03:24:10;;;;;;;6.27;2.23;;;5.20;99.90;;;;;;4983025;28;20757;-50
2021/04/28 03:26:39;;;;;;;3.50;2.40;;;5.20;99.90;;;;;;4970162;28;20246;-49
2021/04/28 03:29:07;;;;;;;4.43;2.43;;;5.20;99.90;;;;;;4970629;28;20323;-50
2021/04/28 03:31:36;;;;;;;3.47;2.30;;;5.20;99.90;;;;;;4968345;28;20234;-49
2021/04/28 03:34:05;;;;;;;2.87;2.47;;;5.10;99.90;;;;;;4971361;28;20237;-49
2021/04/28 03:36:32;;;;;;;4.47;2.90;;;5.10;99.90;;;;;;4972537;28;20698;-50
2021/04/28 03:39:08;;;;;;;3.20;2.50;;;5.10;99.90;;;;;;4988611;28;20304;-49
2021/04/28 03:41:36;;;;;;;5.77;2.77;;;5.20;99.90;;;;;;4987464;28;20238;-50
2021/04/28 03:44:05;;;;;;;6.03;2.70;;;5.10;99.90;;;;;;5004623;28;20246;-49
2021/04/28 03:46:34;;;;;;;5.43;2.60;;;5.10;99.90;;;;;;5004316;28;20233;-50
2021/04/28 03:49:07;;;;;;;4.03;2.47;;;5.10;99.90;;;;;;4987725;28;20747;-49
2021/04/28 03:51:35;;;;;;;3.83;2.63;;;5.10;99.90;;;;;;5003668;28;20680;-51
2021/04/28 03:54:15;;;;;;;5.27;2.40;;;5.10;99.90;;;;;;4982274;28;20234;-49
2021/04/28 03:56:45;;;;;;;6.30;2.77;;;5.10;99.90;;;;;;5008075;28;20270;-49
2021/04/28 03:59:14;;;;;;;4.93;2.13;;;5.10;99.90;;;;;;4992129;28;20292;-49
2021/04/28 04:01:43;;;;;;;3.67;2.77;;;5.10;99.90;;;;;;4987933;28;20667;-50
2021/04/28 04:04:11;;;;;;;3.07;2.57;;;5.10;99.90;;;;;;4987628;28;20241;-49
2021/04/28 04:07:04;;;;;;;3.13;2.50;;;5.10;99.90;;;;;;4989050;28;20238;-49
2021/04/28 04:09:57;;;;;;;5.33;2.80;;;5.00;99.90;;;;;;4992919;28;20332;-49
2021/04/28 04:12:25;;;;;;;3.97;2.87;;;5.00;99.90;;;;;;4978480;28;20610;-50
2021/04/28 04:14:57;;;;;;;4.57;2.60;;;5.00;99.90;;;;;;4968068;28;20269;-49
2021/04/28 04:17:26;;;;;;;3.43;2.33;;;5.00;99.90;;;;;;4969769;28;20249;-50
2021/04/28 04:20:14;;;;;;;5.40;2.53;;;5.10;99.90;;;;;;4991099;28;20249;-50
2021/04/28 04:22:51;;;;;;;3.50;2.50;;;5.10;99.90;;;;;;4988662;28;20236;-50
2021/04/28 04:25:29;;;;;;;5.93;2.90;;;5.10;99.90;;;;;;4989006;28;20239;-50
2021/04/28 04:27:56;;;;;;;4.03;2.87;;;5.10;99.90;;;;;;5003682;28;20234;-50
2021/04/28 04:30:41;;;;;;;3.20;2.57;;;5.00;99.90;;;;;;4986042;28;20234;-49
2021/04/28 04:33:27;;;;;;;4.63;3.10;;;5.10;99.90;;;;;;4970166;28;20250;-50
2021/04/28 04:36:17;;;;;;;3.37;2.60;;;5.20;99.90;;;;;;4969377;28;20610;-50
2021/04/28 04:39:04;;;;;;;5.07;2.87;;;5.20;99.90;;;;;;4969168;28;20245;-49
2021/04/28 04:41:43;;;;;;;5.63;3.43;;;5.30;99.90;;;;;;4968680;28;20647;-50
2021/04/28 04:44:14;;;;;;;5.30;2.93;;;5.20;99.90;;;;;;4969597;28;20778;-50
2021/04/28 04:47:02;;;;;;;5.67;3.07;;;5.20;99.90;;;;;;4972501;28;20274;-50
2021/04/28 04:49:30;;;;;;;6.43;3.40;;;5.20;99.90;;;;;;4987595;28;20320;-50
2021/04/28 04:51:57;;;;;;;5.80;2.97;;;5.30;99.90;;;;;;4985606;28;20283;-50
2021/04/28 04:54:25;;;;;;;5.07;3.13;;;5.40;99.90;;;;;;4980093;28;20258;-50
2021/04/28 04:56:52;;;;;;;4.67;3.10;;;5.30;99.90;;;;;;4998741;28;20663;-50
2021/04/28 04:59:20;;;;;;;7.67;3.27;;;5.30;99.90;;;;;;4993580;28;20245;-51
2021/04/28 05:01:47;;;;;;;3.73;3.20;;;5.40;99.90;;;;;;5006029;28;20229;-49
2021/04/28 05:04:15;;;;;;;5.43;3.10;;;5.50;99.90;;;;;;4982715;28;20232;-50
2021/04/28 05:06:45;;;;;;;5.73;3.07;;;5.50;99.90;;;;;;4984847;28;20767;-49
2021/04/28 05:09:12;;;;;;;5.03;2.80;;;5.60;99.90;;;;;;4986195;28;20265;-49
2021/04/28 05:11:40;;;;;;;4.43;3.23;;;5.70;99.90;;;;;;4979345;28;20244;-50
2021/04/28 05:14:07;;;;;;;5.73;3.30;;;5.70;99.90;;;;;;4975840;28;20226;-51
2021/04/28 05:16:35;;;;;;;5.10;3.10;;;5.90;99.90;;;;;;4971596;28;20416;-50
2021/04/28 05:19:03;;;;;;;4.57;3.13;;;6.00;99.90;;;;;;4992111;28;20337;-49
2021/04/28 05:21:31;;;;;;;6.23;3.37;;;6.00;99.90;;;;;;4982556;28;20305;-49
2021/04/28 05:24:02;;;;;;;5.83;3.53;;;6.10;99.90;;;;;;4985060;28;20710;-50
2021/04/28 05:26:48;;;;;;;5.67;3.23;;;6.20;99.90;;;;;;4969853;28;20234;-50
2021/04/28 05:29:16;;;;;;;4.80;3.23;;;6.30;99.90;;;;;;4970691;28;20235;-49
2021/04/28 05:31:45;;;;;;;5.17;3.30;;;6.40;99.90;;;;;;4969590;28;20595;-49
2021/04/28 05:34:13;;;;;;;5.87;3.40;;;6.60;99.90;;;;;;4970368;28;20608;-50
2021/04/28 05:36:41;;;;;;;5.50;3.50;;;6.70;99.90;;;;;;4973955;28;20237;-50
2021/04/28 05:39:09;;;;;;;4.83;3.50;;;6.90;99.90;;;;;;4972195;28;20768;-50
2021/04/28 05:41:36;;;;;;;4.70;3.60;;;7.10;99.90;;;;;;4980258;28;20242;-50
2021/04/28 05:44:05;;;;;;;5.30;3.63;;;7.10;99.90;;;;;;4976187;28;20247;-50
2021/04/28 05:46:32;;;;;;;6.93;3.50;;;7.10;99.90;;;;;;4979468;28;20547;-50
2021/04/28 05:49:00;;;;;;;5.60;3.30;;;7.30;99.90;;;;;;4979690;28;20305;-50
2021/04/28 05:51:27;;;;;;;4.83;3.57;;;7.40;99.90;;;;;;4986521;28;20233;-50
2021/04/28 05:53:56;;;;;;;7.00;3.73;;;7.40;99.90;;;;;;4993690;28;20260;-50
2021/04/28 05:56:23;;;;;;;5.87;3.30;;;7.60;99.90;;;;;;5002241;28;20249;-49
2021/04/28 05:58:50;;;;;;;6.83;3.60;;;7.70;99.90;;;;;;5003108;28;20241;-50
2021/04/28 06:01:18;;;;;;;4.83;3.50;;;7.80;99.90;;;;;;4989195;28;20285;-52
2021/04/28 06:03:46;;;;;;;5.03;3.33;;;8.00;99.90;;;;;;4987488;28;20246;-50
2021/04/28 06:06:13;;;;;;;5.20;3.40;;;8.10;99.90;;;;;;4975566;28;20246;-50
2021/04/28 06:08:40;;;;;;;4.40;4.00;;;8.30;99.90;;;;;;4969564;28;20245;-50
2021/04/28 06:11:10;;;;;;;4.67;3.60;;;8.30;99.90;;;;;;4981080;28;20644;-49
2021/04/28 06:13:38;;;;;;;5.80;3.87;;;8.40;99.90;;;;;;4990483;28;20342;-51
2021/04/28 06:16:05;;;;;;;7.13;3.90;;;8.40;99.90;;;;;;4974871;28;20627;-49
2021/04/28 06:18:33;;;;;;;5.83;3.77;;;8.60;99.90;;;;;;4989381;28;20252;-50
2021/04/28 06:21:02;;;;;;;5.43;3.70;;;8.60;99.90;;;;;;4988825;28;20235;-50
2021/04/28 06:23:32;;;;;;;6.37;4.17;;;8.80;99.90;;;;;;5008564;28;20238;-49
2021/04/28 06:25:59;;;;;;;6.60;4.87;;;8.90;99.90;;;;;;4989976;28;20738;-49
2021/04/28 06:28:30;;;;;;;6.90;4.40;;;8.90;99.90;;;;;;4970924;28;20237;-49
2021/04/28 06:30:57;;;;;;;6.43;4.23;;;9.00;99.90;;;;;;4982945;28;20242;-50
2021/04/28 06:33:25;;;;;;;6.50;4.10;;;9.20;99.90;;;;;;4984143;28;20229;-49
2021/04/28 06:35:54;;;;;;;6.83;4.10;;;9.50;99.90;;;;;;4980694;28;20653;-49
2021/04/28 06:38:23;;;;;;;7.20;4.10;;;9.60;99.90;;;;;;4982002;28;20429;-49
2021/04/28 06:40:50;;;;;;;6.20;4.60;;;9.50;99.90;;;;;;4987833;28;20716;-49
2021/04/28 06:43:17;;;;;;;5.03;3.47;;;9.60;99.90;;;;;;4988671;28;20254;-49
2021/04/28 06:46:06;;;;;;;6.27;4.40;;;9.90;99.90;;;;;;4987713;28;20249;-49
2021/04/28 06:48:34;;;;;;;8.50;4.13;;;10.00;99.90;;;;;;4987981;28;20236;-49
2021/04/28 06:51:01;;;;;;;9.73;4.60;;;10.00;99.90;;;;;;4989197;28;20248;-49
2021/04/28 06:53:29;;;;;;;5.50;3.90;;;10.10;99.90;;;;;;4992305;28;20317;-48
2021/04/28 06:55:57;;;;;;;5.23;4.13;;;10.30;99.90;;;;;;4998918;28;20297;-49
2021/04/28 06:58:24;;;;;;;6.80;4.40;;;10.40;99.90;;;;;;4978369;28;20328;-49
2021/04/28 07:00:51;;;;;;;6.37;4.00;;;10.50;99.90;;;;;;4969679;28;20241;-49
2021/04/28 07:03:19;;;;;;;6.37;4.03;;;10.60;99.90;;;;;;4971728;28;20256;-49
2021/04/28 07:05:47;;;;;;;5.60;4.00;;;10.60;99.90;;;;;;4974738;28;20256;-49
2021/04/28 07:08:14;;;;;;;6.70;3.93;;;10.80;99.90;;;;;;4989573;28;20248;-50
2021/04/28 07:10:42;;;;;;;7.53;4.30;;;10.70;99.90;;;;;;4984788;28;20235;-49
2021/04/28 07:13:09;;;;;;;5.83;4.00;;;10.90;99.90;;;;;;4991985;28;20236;-49
2021/04/28 07:15:37;;;;;;;5.57;4.60;;;11.20;99.90;;;;;;4990428;28;20244;-49
2021/04/28 07:18:05;;;;;;;5.93;4.30;;;11.40;99.90;;;;;;4980261;28;20729;-48
2021/04/28 07:20:33;;;;;;;6.10;4.40;;;11.40;99.90;;;;;;4971096;28;20288;-49
2021/04/28 07:23:00;;;;;;;7.43;4.23;;;11.80;99.90;;;;;;4977892;28;20811;-48
2021/04/28 07:25:28;;;;;;;4.50;4.10;;;12.10;99.90;;;;;;4976936;28;20240;-49
2021/04/28 07:27:55;;;;;;;6.80;4.57;;;12.40;99.90;;;;;;4989053;28;20346;-49
2021/04/28 07:30:23;;;;;;;7.83;4.53;;;12.60;99.80;;;;;;4971022;28;20242;-49
2021/04/28 07:32:51;;;;;;;6.73;4.47;;;12.60;98.60;;;;;;4970413;28;20233;-49
2021/04/28 07:35:21;;;;;;;5.23;4.23;;;12.60;97.60;;;;;;4982748;28;20245;-49
2021/04/28 07:37:50;;;;;;;4.80;3.90;;;12.70;98.40;;;;;;4977143;28;20683;-49
2021/04/28 07:40:21;;;;;;;5.93;4.50;;;12.60;96.60;;;;;;4994219;28;20237;-49
2021/04/28 07:42:49;;;;;;;6.77;4.30;;;12.70;96.80;;;;;;4991992;28;20249;-49
2021/04/28 07:45:18;;;;;;;5.40;4.43;;;12.70;96.40;;;;;;4993456;28;20249;-49
2021/04/28 07:47:46;;;;;;;7.53;4.47;;;12.80;96.30;;;;;;4982760;28;20254;-49
2021/04/28 07:50:16;;;;;;;8.40;4.50;;;12.80;95.80;;;;;;4982735;28;20734;-49
2021/04/28 07:52:44;;;;;;;4.70;4.20;;;13.00;95.20;;;;;;4994518;28;20248;-49
2021/04/28 07:55:13;;;;;;;4.60;4.03;;;13.20;95.50;;;;;;4997230;28;20234;-49
2021/04/28 07:57:41;;;;;;;6.40;4.40;;;13.40;94.50;;;;;;4984889;28;20785;-50
2021/04/28 08:00:11;;;;;;;7.07;4.40;;;13.50;93.70;;;;;;4974371;28;20247;-49
2021/04/28 08:02:41;;;;;;;6.03;4.60;;;13.40;92.60;;;;;;4978255;28;20260;-50
2021/04/28 08:05:10;;;;;;;6.63;4.50;;;13.40;93.60;;;;;;4984956;28;20722;-49
2021/04/28 08:07:38;;;;;;;6.27;4.87;;;13.80;92.30;;;;;;4989017;28;20233;-49
2021/04/28 08:10:08;;;;;;;11.03;5.20;;;14.00;92.90;;;;;;4983684;28;20246;-49
2021/04/28 08:12:36;;;;;;;8.77;4.90;;;14.40;92.90;;;;;;4972216;28;20244;-51
2021/04/28 08:15:05;;;;;;;7.47;4.60;;;14.50;93.30;;;;;;4970920;28;20246;-50
2021/04/28 08:17:33;;;;;;;6.00;4.53;;;14.50;92.40;;;;;;4976357;28;20729;-49
2021/04/28 08:20:03;;;;;;;8.53;5.07;;;14.50;92.70;;;;;;4971512;28;20248;-49
2021/04/28 08:22:30;;;;;;;6.67;5.00;;;14.40;90.30;;;;;;4981043;28;20255;-49
2021/04/28 08:24:58;;;;;;;5.73;4.50;;;14.30;89.90;;;;;;4968445;28;20273;-49
2021/04/28 08:27:25;;;;;;;8.80;4.97;;;14.30;89.10;;;;;;4982454;28;20256;-50
2021/04/28 08:29:54;;;;;;;7.63;5.00;;;14.50;88.10;;;;;;4979638;28;20786;-49
2021/04/28 08:32:21;;;;;;;8.63;5.03;;;14.50;86.40;;;;;;4971512;28;20251;-49
2021/04/28 08:34:49;;;;;;;7.43;4.97;;;14.40;84.80;;;;;;4967465;28;20258;-50
2021/04/28 08:37:16;;;;;;;7.93;4.87;;;14.30;84.20;;;;;;4986176;28;20248;-49
2021/04/28 08:39:44;;;;;;;6.43;4.90;;;14.00;82.30;;;;;;4975898;28;20237;-51
2021/04/28 08:42:11;;;;;;;7.27;4.60;;;14.00;81.80;;;;;;4983844;28;20320;-49
2021/04/28 08:44:39;;;;;;;6.30;4.33;;;14.30;82.30;;;;;;4982682;28;20679;-49
2021/04/28 08:47:07;;;;;;;6.20;4.50;;;14.70;84.20;;;;;;4985987;28;20780;-49
2021/04/28 08:49:35;;;;;;;5.43;4.83;;;15.00;81.00;;;;;;4977454;28;20329;-49
2021/04/28 08:52:04;;;;;;;6.03;4.60;;;15.10;78.70;;;;;;4985407;28;20250;-49
2021/04/28 08:54:46;;;;;;;7.27;4.50;;;15.30;78.80;;;;;;4965913;28;20846;-49
2021/04/28 08:57:13;;;;;;;8.23;4.70;;;15.40;77.10;;;;;;4977470;28;20263;-48
2021/04/28 08:59:41;;;;;;;7.83;4.37;;;15.60;76.80;;;;;;4985167;28;20233;-49
2021/04/28 09:02:17;;;;;;;6.37;4.50;;;15.90;76.30;;;;;;4988904;28;20614;-49
2021/04/28 09:05:10;;;;;;;4.83;4.33;;;16.10;75.90;;;;;;4988226;28;20252;-49
2021/04/28 09:07:38;;;;;;;6.03;4.07;;;16.00;73.90;;;;;;4969966;28;20242;-49
2021/04/28 09:10:09;;;;;;;5.60;4.50;;;15.60;70.80;;;;;;4975276;28;20239;-48
2021/04/28 09:12:37;;;;;;;5.33;4.37;;;15.60;72.40;;;;;;4983241;28;20738;-49
2021/04/28 09:15:07;;;;;;;4.97;4.37;;;16.00;73.50;;;;;;4979932;28;20246;-49
2021/04/28 09:17:50;;;;;;;5.87;4.30;;;16.10;73.60;;;;;;4969867;28;20240;-49
2021/04/28 09:20:39;;;;;;;5.43;4.63;;;16.10;71.10;;;;;;4977177;28;20761;-49
2021/04/28 09:23:34;;;;;;;6.83;4.50;;;16.00;71.70;;;;;;4988666;28;20246;-49
2021/04/28 09:26:20;;;;;;;7.27;4.03;;;16.20;71.40;;;;;;4975760;28;20255;-49
2021/04/28 09:29:22;;;;;;;7.83;4.63;;;16.20;70.00;;;;;;4969524;28;20240;-49
2021/04/28 09:32:03;;;;;;;5.80;4.20;;;16.10;70.20;;;;;;4969100;28;20245;-49
2021/04/28 09:34:38;;;;;;;5.43;3.90;;;15.70;70.80;;;;;;4969540;28;21164;-49
2021/04/28 09:37:12;;;;;;;5.60;4.33;;;15.60;68.60;;;;;;4970133;28;20294;-49
2021/04/28 09:39:47;;;;;;;5.80;4.63;;;15.70;70.40;;;;;;4966299;28;20703;-49
2021/04/28 09:42:16;;;;;;;5.67;4.50;;;15.80;71.10;;;;;;4967554;28;20606;-49
2021/04/28 09:44:48;;;;;;;5.20;4.33;;;16.20;69.80;;;;;;4971684;28;20302;-49
2021/04/28 09:47:19;;;;;;;5.27;4.33;;;16.30;69.00;;;;;;4979277;28;20294;-46
2021/04/28 09:49:51;;;;;;;5.50;4.50;;;16.50;69.30;;;;;;4988709;28;20615;-46
2021/04/28 09:52:22;;;;;;;5.50;4.33;;;16.50;68.20;;;;;;4971806;28;20245;-46
2021/04/28 09:54:52;;;;;;;5.67;4.70;;;16.50;68.10;;;;;;4952083;28;20248;-46
2021/04/28 09:57:35;;;;;;;8.27;4.90;;;16.80;69.00;;;;;;4969997;28;20252;-47
2021/04/28 10:00:13;;;;;;;6.87;4.90;;;17.10;66.90;;;;;;4969069;28;20261;-46
2021/04/28 10:02:42;;;;;;;6.57;5.17;;;17.20;66.40;;;;;;4968675;28;20599;-46
2021/04/28 10:05:20;;;;;;;6.20;4.70;;;17.00;65.10;;;;;;4965830;28;20328;-50
2021/04/28 10:07:53;;;;;;;5.13;4.60;;;17.00;65.30;;;;;;4950579;28;20237;-46
2021/04/28 10:10:22;;;;;;;6.20;4.73;;;17.10;65.90;;;;;;4954050;28;20646;-47
2021/04/28 10:12:49;;;;;;;8.63;4.43;;;17.40;66.10;;;;;;4959919;28;20332;-46
2021/04/28 10:15:19;;;;;;;7.80;4.80;;;17.60;65.80;;;;;;4951183;28;20328;-47
2021/04/28 10:17:47;;;;;;;6.83;4.90;;;17.70;63.50;;;;;;4968900;28;20264;-46
2021/04/28 10:20:17;;;;;;;10.40;4.87;;;17.50;65.10;;;;;;4966641;28;20601;-46
2021/04/28 10:22:44;;;;;;;6.80;5.17;;;17.30;65.10;;;;;;4964774;28;20238;-47
2021/04/28 10:25:14;;;;;;;6.33;5.20;;;17.10;65.50;;;;;;4953733;28;20480;-46
2021/04/28 10:27:43;;;;;;;6.63;4.77;;;17.30;63.70;;;;;;4969348;28;20252;-46
2021/04/28 10:30:15;;;;;;;7.27;5.10;;;17.20;65.10;;;;;;4968756;28;20247;-46
2021/04/28 10:32:44;;;;;;;10.00;5.60;;;17.40;64.90;;;;;;4968628;28;20705;-47
2021/04/28 10:35:17;;;;;;;8.13;5.30;;;17.60;63.30;;;;;;4963941;28;20668;-46
2021/04/28 10:37:51;;;;;;;9.10;4.90;;;17.50;63.40;;;;;;4949378;28;20241;-46
2021/04/28 10:40:22;;;;;;;6.93;5.87;;;17.60;63.50;;;;;;4965631;28;20665;-47
2021/04/28 10:42:51;;;;;;;8.30;5.07;;;17.50;63.10;;;;;;4970759;28;20236;-46
2021/04/28 10:45:37;;;;;;;7.57;4.87;;;17.70;64.00;;;;;;4976610;28;20247;-46
2021/04/28 10:48:07;;;;;;;6.33;5.10;;;18.30;61.90;;;;;;4968942;28;20240;-46
2021/04/28 10:50:40;;;;;;;7.17;5.57;;;18.40;61.80;;;;;;4979317;28;20695;-46
2021/04/28 10:53:18;;;;;;;9.30;5.40;;;18.00;61.20;;;;;;4955158;28;20794;-47
2021/04/28 10:55:50;;;;;;;6.53;5.40;;;18.00;63.10;;;;;;4967747;28;20297;-46
2021/04/28 10:58:42;;;;;;;7.23;5.30;;;18.10;60.90;;;;;;4958102;28;20245;-47
2021/04/28 11:01:32;;;;;;;7.07;5.30;;;18.30;61.30;;;;;;4949011;28;20254;-46
2021/04/28 11:04:00;;;;;;;6.97;5.47;;;18.20;60.50;;;;;;4949705;28;20242;-47
2021/04/28 11:06:37;;;;;;;6.23;5.10;;;18.10;61.00;;;;;;4967956;28;20246;-47
2021/04/28 11:09:29;;;;;;;7.87;5.80;;;18.30;61.70;;;;;;4951663;28;20598;-47
2021/04/28 11:12:00;;;;;;;7.07;5.43;;;18.30;60.60;;;;;;4955085;28;20710;-47
2021/04/28 11:14:37;;;;;;;8.67;6.13;;;18.80;61.10;;;;;;4987852;28;20240;-47
2021/04/28 11:17:29;;;;;;;6.43;5.83;;;18.80;60.40;;;;;;4992938;28;20243;-46
2021/04/28 11:20:22;;;;;;;8.93;6.17;;;19.10;60.20;;;;;;4995871;28;20236;-46
2021/04/28 11:22:53;;;;;;;9.33;5.80;;;19.00;58.70;;;;;;4968416;28;20321;-47
2021/04/28 11:25:21;;;;;;;7.30;6.03;;;19.10;60.30;;;;;;4977455;28;20244;-46
2021/04/28 11:28:01;;;;;;;11.70;6.63;;;18.50;59.90;;;;;;4977912;28;20270;-46
2021/04/28 11:30:41;;;;;;;7.30;6.60;;;18.70;60.50;;;;;;4977176;28;20263;-47
2021/04/28 11:33:36;;;;;;;8.37;6.33;;;19.10;59.10;;;;;;4977243;28;20240;-47
2021/04/28 11:36:12;;;;;;;13.03;6.70;;;19.00;60.00;;;;;;4976437;28;20702;-46
2021/04/28 11:38:44;;;;;;;8.73;6.50;;;18.70;59.90;;;;;;4966808;28;20267;-47
2021/04/28 11:41:15;;;;;;;8.63;7.07;;;18.80;59.90;;;;;;4982672;28;20716;-46
2021/04/28 11:43:46;;;;;;;6.67;5.97;;;18.80;60.20;;;;;;4992272;28;20255;-47
2021/04/28 11:46:16;;;;;;;8.10;7.30;;;19.20;60.00;;;;;;4979482;28;20312;-47
2021/04/28 11:48:46;;;;;;;8.17;6.80;;;19.40;61.10;;;;;;4971951;28;20311;-47
2021/04/28 11:51:24;;;;;;;8.50;6.57;;;19.20;60.40;;;;;;4979201;28;20676;-47
2021/04/28 11:53:55;;;;;;;11.23;7.60;;;19.20;59.30;;;;;;4978668;28;20684;-47
2021/04/28 11:56:31;;;;;;;8.23;7.33;;;18.90;59.50;;;;;;4986906;28;20364;-47
2021/04/28 11:59:00;;;;;;;7.93;6.43;;;18.50;61.20;;;;;;4985742;28;20720;-49
2021/04/28 12:01:30;;;;;;;9.10;7.10;;;18.60;62.60;;;;;;4984584;28;20244;-47
2021/04/28 12:04:06;;;;;;;8.87;7.27;;;18.50;61.90;;;;;;4965201;28;20324;-48
2021/04/28 12:06:41;;;;;;;9.50;8.60;;;18.80;62.30;;;;;;4981360;28;20423;-47
2021/04/28 12:09:25;;;;;;;8.53;6.90;;;18.70;61.50;;;;;;4985706;28;20311;-47
2021/04/28 12:12:16;;;;;;;13.00;8.40;;;18.50;63.10;;;;;;4968225;28;20675;-47
2021/04/28 12:14:47;;;;;;;9.50;7.80;;;18.40;62.40;;;;;;4966454;28;20245;-48
2021/04/28 12:17:17;;;;;;;9.00;7.90;;;17.90;63.50;;;;;;4984415;28;20249;-47
2021/04/28 12:19:48;;;;;;;11.13;8.10;;;18.20;63.00;;;;;;4983388;28;20237;-47
2021/04/28 12:22:16;;;;;;;12.27;8.30;;;18.10;64.60;;;;;;4984846;28;20248;-47
2021/04/28 12:24:47;;;;;;;9.27;7.67;;;18.30;64.90;;;;;;4966538;28;20673;-47
2021/04/28 12:27:22;;;;;;;10.10;8.37;;;18.50;64.20;;;;;;4965788;28;20253;-47
2021/04/28 12:29:55;;;;;;;9.07;7.10;;;18.40;64.30;;;;;;4966130;28;20248;-47
2021/04/28 12:32:24;;;;;;;10.87;8.30;;;18.30;65.40;;;;;;4983203;28;20277;-47
2021/04/28 12:35:13;;;;;;;9.60;7.87;;;18.20;63.50;;;;;;4992362;28;20263;-47
2021/04/28 12:37:42;;;;;;;9.43;7.47;;;17.90;65.50;;;;;;4981395;28;20290;-47
2021/04/28 12:40:12;;;;;;;9.87;8.37;;;18.10;65.80;;;;;;4991775;28;20247;-47
2021/04/28 12:42:41;;;;;;;9.60;7.93;;;18.30;64.50;;;;;;5004380;28;20233;-46
2021/04/28 12:45:13;;;;;;;9.93;7.27;;;18.50;63.80;;;;;;5000742;28;20340;-49
2021/04/28 12:47:41;;;;;;;10.40;7.63;;;18.60;63.90;;;;;;4985635;28;20237;-47
2021/04/28 12:50:19;;;;;;;8.30;7.40;;;18.90;61.70;;;;;;4982620;28;20695;-46
2021/04/28 12:52:47;;;;;;;8.70;7.30;;;18.90;60.50;;;;;;4984943;28;20249;-47
2021/04/28 12:55:41;;;;;;;10.80;7.23;;;18.90;61.80;;;;;;4980098;28;20622;-47
2021/04/28 12:58:11;;;;;;;10.60;8.30;;;19.00;62.30;;;;;;4968268;28;20323;-47
2021/04/28 13:00:44;;;;;;;9.57;7.97;;;19.10;61.60;;;;;;4980737;28;20323;-47
2021/04/28 13:03:15;;;;;;;9.73;7.87;;;18.90;60.70;;;;;;4975649;28;20245;-47
2021/04/28 13:05:51;;;;;;;10.67;7.80;;;18.60;62.50;;;;;;4975169;28;20648;-47
2021/04/28 13:08:22;;;;;;;9.20;7.70;;;18.60;64.60;;;;;;4985676;28;20283;-47
2021/04/28 13:11:14;;;;;;;8.83;7.23;;;18.80;63.10;;;;;;4986639;28;20715;-47
2021/04/28 13:13:45;;;;;;;7.97;7.17;;;18.90;61.60;;;;;;4986487;28;20298;-48
2021/04/28 13:16:38;;;;;;;8.70;7.43;;;18.70;60.10;;;;;;4985142;28;20283;-47